sensor_id;sensor_type;location;lat;lon;timestamp;pressure;altitude;pressure_sealevel;temperature;humidity
69535;BME280;56754;51.568;5.048;2023-09-07T00:00:31;101891.69;;;22.83;65.93
69535;BME280;56754;51.568;5.048;2023-09-07T00:02:57;101901.81;;;22.83;65.71
69535;BME280;56754;51.568;5.048;2023-09-07T00:05:22;101893.25;;;22.81;65.86
69535;BME280;56754;51.568;5.048;2023-09-07T00:07:48;101888.16;;;22.79;65.73
69535;BME280;56754;51.568;5.048;2023-09-07T00:10:13;101882.69;;;22.79;65.97
69535;BME280;56754;51.568;5.048;2023-09-07T00:12:39;101883.84;;;22.78;66.05
69535;BME280;56754;51.568;5.048;2023-09-07T00:15:04;101883.06;;;22.78;66.09
69535;BME280;56754;51.568;5.048;2023-09-07T00:17:30;101883.44;;;22.76;66.09
69535;BME280;56754;51.568;5.048;2023-09-07T00:19:55;101882.66;;;22.76;65.95
69535;BME280;56754;51.568;5.048;2023-09-07T00:22:20;101879.13;;;22.75;65.92
69535;BME280;56754;51.568;5.048;2023-09-07T00:24:46;101880.28;;;22.74;66.12
69535;BME280;56754;51.568;5.048;2023-09-07T00:27:11;101872.47;;;22.73;66.05
69535;BME280;56754;51.568;5.048;2023-09-07T00:29:36;101879.88;;;22.72;65.94
69535;BME280;56754;51.568;5.048;2023-09-07T00:32:01;101872.84;;;22.71;65.98
69535;BME280;56754;51.568;5.048;2023-09-07T00:34:27;101877.50;;;22.70;66.23
69535;BME280;56754;51.568;5.048;2023-09-07T00:36:52;101880.22;;;22.70;66.02
69535;BME280;56754;51.568;5.048;2023-09-07T00:39:17;101871.63;;;22.68;66.22
69535;BME280;56754;51.568;5.048;2023-09-07T00:41:43;101879.00;;;22.68;66.16
69535;BME280;56754;51.568;5.048;2023-09-07T00:44:08;101863.03;;;22.66;66.39
69535;BME280;56754;51.568;5.048;2023-09-07T00:46:33;101879.41;;;22.66;66.41
69535;BME280;56754;51.568;5.048;2023-09-07T00:48:59;101878.63;;;22.66;66.27
69535;BME280;56754;51.568;5.048;2023-09-07T00:51:25;101881.69;;;22.64;66.46
69535;BME280;56754;51.568;5.048;2023-09-07T00:53:50;101873.91;;;22.63;66.48
69535;BME280;56754;51.568;5.048;2023-09-07T00:56:18;101877.75;;;22.62;66.19
69535;BME280;56754;51.568;5.048;2023-09-07T00:58:44;101876.97;;;22.61;66.22
69535;BME280;56754;51.568;5.048;2023-09-07T01:01:10;101876.97;;;22.61;66.14
69535;BME280;56754;51.568;5.048;2023-09-07T01:03:35;101880.88;;;22.60;66.26
69535;BME280;56754;51.568;5.048;2023-09-07T01:06:12;101864.88;;;22.59;66.54
69535;BME280;56754;51.568;5.048;2023-09-07T01:08:43;101875.75;;;22.59;66.25
69535;BME280;56754;51.568;5.048;2023-09-07T01:11:16;101874.97;;;22.58;66.20
69535;BME280;56754;51.568;5.048;2023-09-07T01:13:42;101869.09;;;22.56;66.36
69535;BME280;56754;51.568;5.048;2023-09-07T01:16:09;101868.31;;;22.56;66.22
69535;BME280;56754;51.568;5.048;2023-09-07T01:18:35;101862.09;;;22.55;66.33
69535;BME280;56754;51.568;5.048;2023-09-07T01:21:01;101857.81;;;22.54;66.30
69535;BME280;56754;51.568;5.048;2023-09-07T01:23:26;101860.88;;;22.53;66.26
69535;BME280;56754;51.568;5.048;2023-09-07T01:25:53;101856.22;;;22.53;66.28
69535;BME280;56754;51.568;5.048;2023-09-07T01:28:20;101856.59;;;22.52;66.25
69535;BME280;56754;51.568;5.048;2023-09-07T01:30:47;101853.09;;;22.51;66.57
69535;BME280;56754;51.568;5.048;2023-09-07T01:33:12;101852.28;;;22.51;66.57
69535;BME280;56754;51.568;5.048;2023-09-07T01:35:38;101850.72;;;22.49;66.44
69535;BME280;56754;51.568;5.048;2023-09-07T01:38:04;101851.88;;;22.48;66.38
69535;BME280;56754;51.568;5.048;2023-09-07T01:40:29;101849.16;;;22.48;66.51
69535;BME280;56754;51.568;5.048;2023-09-07T01:42:54;101853.00;;;22.47;66.63
69535;BME280;56754;51.568;5.048;2023-09-07T01:45:20;101854.16;;;22.46;66.20
69535;BME280;56754;51.568;5.048;2023-09-07T01:47:45;101856.91;;;22.46;66.22
69535;BME280;56754;51.568;5.048;2023-09-07T01:50:10;101851.44;;;22.46;66.61
69535;BME280;56754;51.568;5.048;2023-09-07T01:52:35;101854.53;;;22.45;66.23
69535;BME280;56754;51.568;5.048;2023-09-07T01:55:01;101845.94;;;22.43;66.49
69535;BME280;56754;51.568;5.048;2023-09-07T01:57:26;101851.41;;;22.43;66.06
69535;BME280;56754;51.568;5.048;2023-09-07T01:59:51;101840.06;;;22.41;66.45
69535;BME280;56754;51.568;5.048;2023-09-07T02:02:16;101849.03;;;22.41;66.53
69535;BME280;56754;51.568;5.048;2023-09-07T02:04:42;101849.81;;;22.42;66.61
69535;BME280;56754;51.568;5.048;2023-09-07T02:07:07;101845.53;;;22.41;66.63
69535;BME280;56754;51.568;5.048;2023-09-07T02:09:32;101844.75;;;22.40;66.19
69535;BME280;56754;51.568;5.048;2023-09-07T02:11:57;101854.06;;;22.39;66.36
69535;BME280;56754;51.568;5.048;2023-09-07T02:14:23;101844.31;;;22.38;66.46
69535;BME280;56754;51.568;5.048;2023-09-07T02:16:48;101841.97;;;22.37;66.34
69535;BME280;56754;51.568;5.048;2023-09-07T02:19:13;101843.91;;;22.36;66.10
69535;BME280;56754;51.568;5.048;2023-09-07T02:21:39;101859.44;;;22.36;66.29
69535;BME280;56754;51.568;5.048;2023-09-07T02:24:04;101850.50;;;22.35;66.67
69535;BME280;56754;51.568;5.048;2023-09-07T02:26:29;101854.38;;;22.34;66.22
69535;BME280;56754;51.568;5.048;2023-09-07T02:28:55;101851.22;;;22.32;66.51
69535;BME280;56754;51.568;5.048;2023-09-07T02:31:20;101852.81;;;22.33;66.49
69535;BME280;56754;51.568;5.048;2023-09-07T02:33:45;101856.66;;;22.32;66.36
69535;BME280;56754;51.568;5.048;2023-09-07T02:36:11;101860.56;;;22.31;66.16
69535;BME280;56754;51.568;5.048;2023-09-07T02:38:36;101851.59;;;22.31;66.16
69535;BME280;56754;51.568;5.048;2023-09-07T02:41:01;101851.16;;;22.29;66.39
69535;BME280;56754;51.568;5.048;2023-09-07T02:43:26;101849.22;;;22.29;66.00
69535;BME280;56754;51.568;5.048;2023-09-07T02:45:52;101849.59;;;22.28;66.30
69535;BME280;56754;51.568;5.048;2023-09-07T02:48:17;101848.78;;;22.27;66.27
69535;BME280;56754;51.568;5.048;2023-09-07T02:50:42;101846.44;;;22.25;66.08
69535;BME280;56754;51.568;5.048;2023-09-07T02:53:08;101846.44;;;22.25;65.70
69535;BME280;56754;51.568;5.048;2023-09-07T02:55:33;101840.56;;;22.23;65.89
69535;BME280;56754;51.568;5.048;2023-09-07T02:57:58;101837.84;;;22.23;65.99
69535;BME280;56754;51.568;5.048;2023-09-07T03:00:24;101838.22;;;22.22;66.03
69535;BME280;56754;51.568;5.048;2023-09-07T03:02:49;101839.38;;;22.21;65.89
69535;BME280;56754;51.568;5.048;2023-09-07T03:05:15;101844.03;;;22.20;66.51
69535;BME280;56754;51.568;5.048;2023-09-07T03:07:41;101845.19;;;22.19;65.85
69535;BME280;56754;51.568;5.048;2023-09-07T03:10:06;101843.63;;;22.18;66.15
69535;BME280;56754;51.568;5.048;2023-09-07T03:12:32;101849.41;;;22.17;66.38
69535;BME280;56754;51.568;5.048;2023-09-07T03:14:57;101843.16;;;22.16;66.15
69535;BME280;56754;51.568;5.048;2023-09-07T03:17:22;101847.81;;;22.16;66.73
69535;BME280;56754;51.568;5.048;2023-09-07T03:19:47;101847.03;;;22.15;66.48
69535;BME280;56754;51.568;5.048;2023-09-07T03:22:13;101851.69;;;22.15;66.30
69535;BME280;56754;51.568;5.048;2023-09-07T03:24:39;101850.13;;;22.14;66.68
69535;BME280;56754;51.568;5.048;2023-09-07T03:27:05;101848.56;;;22.13;66.35
69535;BME280;56754;51.568;5.048;2023-09-07T03:29:30;101844.25;;;22.12;66.03
69535;BME280;56754;51.568;5.048;2023-09-07T03:31:55;101849.69;;;22.12;66.40
69535;BME280;56754;51.568;5.048;2023-09-07T03:34:21;101841.13;;;22.10;66.06
69535;BME280;56754;51.568;5.048;2023-09-07T03:36:46;101846.56;;;22.10;66.44
69535;BME280;56754;51.568;5.048;2023-09-07T03:39:11;101846.13;;;22.08;66.15
69535;BME280;56754;51.568;5.048;2023-09-07T03:41:36;101843.41;;;22.08;65.94
69535;BME280;56754;51.568;5.048;2023-09-07T03:44:02;101849.19;;;22.06;65.71
69535;BME280;56754;51.568;5.048;2023-09-07T03:46:27;101842.97;;;22.06;65.92
69535;BME280;56754;51.568;5.048;2023-09-07T03:48:52;101848.78;;;22.04;66.05
69535;BME280;56754;51.568;5.048;2023-09-07T03:51:18;101853.44;;;22.03;66.08
69535;BME280;56754;51.568;5.048;2023-09-07T03:53:43;101850.72;;;22.03;66.81
69535;BME280;56754;51.568;5.048;2023-09-07T03:56:08;101851.88;;;22.02;66.10
69535;BME280;56754;51.568;5.048;2023-09-07T03:58:34;101845.63;;;22.02;66.60
69535;BME280;56754;51.568;5.048;2023-09-07T04:00:59;101853.38;;;22.00;65.90
69535;BME280;56754;51.568;5.048;2023-09-07T04:03:25;101849.09;;;21.99;66.30
69535;BME280;56754;51.568;5.048;2023-09-07T04:05:51;101859.19;;;21.98;66.31
69535;BME280;56754;51.568;5.048;2023-09-07T04:08:16;101857.59;;;21.97;66.45
69535;BME280;56754;51.568;5.048;2023-09-07T04:10:41;101856.81;;;21.97;66.32
69535;BME280;56754;51.568;5.048;2023-09-07T04:13:06;101856.03;;;21.96;66.98
69535;BME280;56754;51.568;5.048;2023-09-07T04:15:33;101853.69;;;21.95;66.41
69535;BME280;56754;51.568;5.048;2023-09-07T04:17:59;101850.16;;;21.94;66.45
69535;BME280;56754;51.568;5.048;2023-09-07T04:20:24;101845.09;;;21.93;66.37
69535;BME280;56754;51.568;5.048;2023-09-07T04:22:49;101852.47;;;21.92;66.25
69535;BME280;56754;51.568;5.048;2023-09-07T04:25:15;101852.81;;;21.91;66.31
69535;BME280;56754;51.568;5.048;2023-09-07T04:27:40;101852.03;;;21.90;66.55
69535;BME280;56754;51.568;5.048;2023-09-07T04:30:06;101857.84;;;21.89;66.61
69535;BME280;56754;51.568;5.048;2023-09-07T04:32:31;101847.31;;;21.87;66.26
69535;BME280;56754;51.568;5.048;2023-09-07T04:34:57;101846.53;;;21.87;66.25
69535;BME280;56754;51.568;5.048;2023-09-07T04:37:23;101853.13;;;21.86;66.22
69535;BME280;56754;51.568;5.048;2023-09-07T04:39:52;101854.66;;;21.83;65.86
69535;BME280;56754;51.568;5.048;2023-09-07T04:42:17;101848.06;;;21.84;66.79
69535;BME280;56754;51.568;5.048;2023-09-07T04:44:43;101857.38;;;21.83;66.84
69535;BME280;56754;51.568;5.048;2023-09-07T04:47:08;101862.00;;;21.83;66.41
69535;BME280;56754;51.568;5.048;2023-09-07T04:49:33;101851.94;;;21.83;66.58
69535;BME280;56754;51.568;5.048;2023-09-07T04:51:59;101848.78;;;21.81;66.77
69535;BME280;56754;51.568;5.048;2023-09-07T04:54:24;101860.81;;;21.80;66.29
69535;BME280;56754;51.568;5.048;2023-09-07T04:56:49;101862.72;;;21.79;66.24
69535;BME280;56754;51.568;5.048;2023-09-07T04:59:14;101859.22;;;21.79;66.69
69535;BME280;56754;51.568;5.048;2023-09-07T05:01:40;101859.59;;;21.77;66.19
69535;BME280;56754;51.568;5.048;2023-09-07T05:04:05;101863.44;;;21.76;66.45
69535;BME280;56754;51.568;5.048;2023-09-07T05:06:30;101860.72;;;21.76;66.40
69535;BME280;56754;51.568;5.048;2023-09-07T05:08:55;101863.81;;;21.75;66.10
69535;BME280;56754;51.568;5.048;2023-09-07T05:11:21;101864.94;;;21.74;67.24
69535;BME280;56754;51.568;5.048;2023-09-07T05:13:46;101868.03;;;21.72;65.93
69535;BME280;56754;51.568;5.048;2023-09-07T05:16:11;101864.53;;;21.72;65.89
69535;BME280;56754;51.568;5.048;2023-09-07T05:18:36;101870.75;;;21.72;66.39
69535;BME280;56754;51.568;5.048;2023-09-07T05:21:11;101865.66;;;21.71;66.51
69535;BME280;56754;51.568;5.048;2023-09-07T05:23:36;101867.97;;;21.69;66.18
69535;BME280;56754;51.568;5.048;2023-09-07T05:26:02;101867.19;;;21.68;66.39
69535;BME280;56754;51.568;5.048;2023-09-07T05:28:27;101866.38;;;21.68;65.84
69535;BME280;56754;51.568;5.048;2023-09-07T05:30:52;101869.09;;;21.68;65.63
69535;BME280;56754;51.568;5.048;2023-09-07T05:33:18;101872.22;;;21.66;65.17
69535;BME280;56754;51.568;5.048;2023-09-07T05:35:43;101876.09;;;21.65;66.27
69535;BME280;56754;51.568;5.048;2023-09-07T05:38:09;101878.00;;;21.65;65.66
69535;BME280;56754;51.568;5.048;2023-09-07T05:40:39;101880.72;;;21.65;65.34
69535;BME280;56754;51.568;5.048;2023-09-07T05:43:05;101884.25;;;21.65;66.40
69535;BME280;56754;51.568;5.048;2023-09-07T05:45:33;101881.88;;;21.64;65.79
69535;BME280;56754;51.568;5.048;2023-09-07T05:47:59;101876.44;;;21.64;65.26
69535;BME280;56754;51.568;5.048;2023-09-07T05:50:24;101882.66;;;21.64;66.45
69535;BME280;56754;51.568;5.048;2023-09-07T05:52:50;101888.09;;;21.64;65.76
69535;BME280;56754;51.568;5.048;2023-09-07T05:55:15;101888.09;;;21.64;65.08
69535;BME280;56754;51.568;5.048;2023-09-07T05:57:40;101882.22;;;21.62;65.55
69535;BME280;56754;51.568;5.048;2023-09-07T06:00:06;101895.47;;;21.64;66.12
69535;BME280;56754;51.568;5.048;2023-09-07T06:02:31;101891.59;;;21.65;66.45
69535;BME280;56754;51.568;5.048;2023-09-07T06:04:57;101899.75;;;21.65;66.47
69535;BME280;56754;51.568;5.048;2023-09-07T06:07:22;101892.03;;;21.67;66.27
69535;BME280;56754;51.568;5.048;2023-09-07T06:09:47;101896.69;;;21.66;65.69
69535;BME280;56754;51.568;5.048;2023-09-07T06:12:13;101899.03;;;21.68;65.79
69535;BME280;56754;51.568;5.048;2023-09-07T06:14:38;101907.19;;;21.68;65.75
69535;BME280;56754;51.568;5.048;2023-09-07T06:17:03;101901.41;;;21.69;65.64
69535;BME280;56754;51.568;5.048;2023-09-07T06:19:28;101901.03;;;21.71;66.17
69535;BME280;56754;51.568;5.048;2023-09-07T06:21:54;101903.75;;;21.71;66.36
69535;BME280;56754;51.568;5.048;2023-09-07T06:24:19;101906.91;;;21.73;65.88
69535;BME280;56754;51.568;5.048;2023-09-07T06:26:44;101904.19;;;21.73;66.43
69535;BME280;56754;51.568;5.048;2023-09-07T06:29:09;101905.41;;;21.75;66.70
69535;BME280;56754;51.568;5.048;2023-09-07T06:31:35;101901.19;;;21.78;66.11
69535;BME280;56754;51.568;5.048;2023-09-07T06:34:00;101896.97;;;21.80;66.19
69535;BME280;56754;51.568;5.048;2023-09-07T06:36:25;101902.81;;;21.83;66.13
69535;BME280;56754;51.568;5.048;2023-09-07T06:38:50;101909.47;;;21.85;66.25
69535;BME280;56754;51.568;5.048;2023-09-07T06:41:16;101904.47;;;21.87;65.42
69535;BME280;56754;51.568;5.048;2023-09-07T06:43:41;101905.69;;;21.90;65.48
69535;BME280;56754;51.568;5.048;2023-09-07T06:46:08;101911.56;;;21.92;65.35
69535;BME280;56754;51.568;5.048;2023-09-07T06:48:34;101910.03;;;21.94;65.20
69535;BME280;56754;51.568;5.048;2023-09-07T06:51:03;101909.69;;;21.96;65.08
69535;BME280;56754;51.568;5.048;2023-09-07T06:53:28;101910.13;;;21.98;64.75
69535;BME280;56754;51.568;5.048;2023-09-07T06:56:01;101911.31;;;22.00;65.29
69535;BME280;56754;51.568;5.048;2023-09-07T06:58:27;101906.31;;;22.02;65.12
69535;BME280;56754;51.568;5.048;2023-09-07T07:00:52;101904.38;;;22.03;64.61
69535;BME280;56754;51.568;5.048;2023-09-07T07:03:21;101907.88;;;22.03;64.77
69535;BME280;56754;51.568;5.048;2023-09-07T07:05:46;101910.69;;;22.07;64.85
69535;BME280;56754;51.568;5.048;2023-09-07T07:08:12;101899.06;;;22.10;65.17
69535;BME280;56754;51.568;5.048;2023-09-07T07:10:37;101904.56;;;22.14;64.06
69535;BME280;56754;51.568;5.048;2023-09-07T07:13:02;101909.31;;;22.17;64.67
69535;BME280;56754;51.568;5.048;2023-09-07T07:15:28;101909.38;;;22.20;64.44
69535;BME280;56754;51.568;5.048;2023-09-07T07:17:53;101901.25;;;22.24;64.28
69535;BME280;56754;51.568;5.048;2023-09-07T07:20:18;101905.63;;;22.29;64.03
69535;BME280;56754;51.568;5.048;2023-09-07T07:22:43;101902.19;;;22.32;63.92
69535;BME280;56754;51.568;5.048;2023-09-07T07:25:10;101907.69;;;22.35;63.45
69535;BME280;56754;51.568;5.048;2023-09-07T07:27:35;101901.50;;;22.38;63.16
69535;BME280;56754;51.568;5.048;2023-09-07T07:30:01;101898.06;;;22.41;63.32
69535;BME280;56754;51.568;5.048;2023-09-07T07:32:26;101903.56;;;22.45;62.86
69535;BME280;56754;51.568;5.048;2023-09-07T07:34:51;101908.31;;;22.48;62.67
69535;BME280;56754;51.568;5.048;2023-09-07T07:37:16;101906.00;;;22.50;62.70
69535;BME280;56754;51.568;5.048;2023-09-07T07:39:42;101909.56;;;22.54;62.57
69535;BME280;56754;51.568;5.048;2023-09-07T07:42:07;101910.75;;;22.57;62.57
69535;BME280;56754;51.568;5.048;2023-09-07T07:44:32;101918.22;;;22.60;62.33
69535;BME280;56754;51.568;5.048;2023-09-07T07:46:58;101911.63;;;22.61;62.33
69535;BME280;56754;51.568;5.048;2023-09-07T07:49:23;101908.16;;;22.64;62.52
69535;BME280;56754;51.568;5.048;2023-09-07T07:51:48;101906.66;;;22.66;62.80
69535;BME280;56754;51.568;5.048;2023-09-07T07:54:13;101899.25;;;22.67;62.55
69535;BME280;56754;51.568;5.048;2023-09-07T07:56:39;101906.69;;;22.70;62.23
69535;BME280;56754;51.568;5.048;2023-09-07T07:59:04;101894.63;;;22.71;62.39
69535;BME280;56754;51.568;5.048;2023-09-07T08:01:29;101897.78;;;22.73;62.45
69535;BME280;56754;51.568;5.048;2023-09-07T08:03:55;101894.72;;;22.75;62.85
69535;BME280;56754;51.568;5.048;2023-09-07T08:06:20;101895.88;;;22.77;62.38
69535;BME280;56754;51.568;5.048;2023-09-07T08:08:45;101902.94;;;22.78;62.42
69535;BME280;56754;51.568;5.048;2023-09-07T08:11:11;101898.69;;;22.81;62.35
69535;BME280;56754;51.568;5.048;2023-09-07T08:13:36;101890.13;;;22.82;62.45
69535;BME280;56754;51.568;5.048;2023-09-07T08:16:02;101899.88;;;22.83;62.31
69535;BME280;56754;51.568;5.048;2023-09-07T08:18:28;101885.88;;;22.85;62.61
69535;BME280;56754;51.568;5.048;2023-09-07T08:20:53;101889.03;;;22.87;62.68
69535;BME280;56754;51.568;5.048;2023-09-07T08:23:19;101887.53;;;22.89;62.26
69535;BME280;56754;51.568;5.048;2023-09-07T08:25:44;101886.78;;;22.92;61.77
69535;BME280;56754;51.568;5.048;2023-09-07T08:28:09;101876.31;;;22.94;61.56
69535;BME280;56754;51.568;5.048;2023-09-07T08:30:34;101874.00;;;22.97;61.70
69535;BME280;56754;51.568;5.048;2023-09-07T08:33:00;101877.94;;;22.99;61.72
69535;BME280;56754;51.568;5.048;2023-09-07T08:35:25;101875.66;;;23.01;61.80
69535;BME280;56754;51.568;5.048;2023-09-07T08:37:50;101875.25;;;23.03;61.33
69535;BME280;56754;51.568;5.048;2023-09-07T08:40:16;101875.69;;;23.05;61.97
69535;BME280;56754;51.568;5.048;2023-09-07T08:42:41;101872.56;;;23.06;62.37
69535;BME280;56754;51.568;5.048;2023-09-07T08:45:08;101877.69;;;23.08;61.85
69535;BME280;56754;51.568;5.048;2023-09-07T08:47:37;101869.88;;;23.10;62.08
69535;BME280;56754;51.568;5.048;2023-09-07T08:50:04;101867.59;;;23.12;62.07
69535;BME280;56754;51.568;5.048;2023-09-07T08:52:30;101874.25;;;23.14;62.33
69535;BME280;56754;51.568;5.048;2023-09-07T08:54:56;101879.34;;;23.16;61.63
69535;BME280;56754;51.568;5.048;2023-09-07T08:57:22;101868.06;;;23.17;61.68
69535;BME280;56754;51.568;5.048;2023-09-07T08:59:49;101871.22;;;23.20;61.76
69535;BME280;56754;51.568;5.048;2023-09-07T09:02:14;101872.00;;;23.20;61.43
69535;BME280;56754;51.568;5.048;2023-09-07T09:04:39;101880.59;;;23.22;61.37
69535;BME280;56754;51.568;5.048;2023-09-07T09:07:04;101869.31;;;23.24;62.13
69535;BME280;56754;51.568;5.048;2023-09-07T09:09:30;101877.13;;;23.25;61.77
69535;BME280;56754;51.568;5.048;2023-09-07T09:12:06;101869.34;;;23.27;61.66
69535;BME280;56754;51.568;5.048;2023-09-07T09:14:32;101875.22;;;23.29;61.49
69535;BME280;56754;51.568;5.048;2023-09-07T09:16:57;101871.75;;;23.32;61.48
69535;BME280;56754;51.568;5.048;2023-09-07T09:19:32;101874.13;;;23.34;61.88
69535;BME280;56754;51.568;5.048;2023-09-07T09:21:58;101875.28;;;23.36;62.01
69535;BME280;56754;51.568;5.048;2023-09-07T09:24:23;101871.44;;;23.37;61.85
69535;BME280;56754;51.568;5.048;2023-09-07T09:26:48;101874.53;;;23.39;62.25
69535;BME280;56754;51.568;5.048;2023-09-07T09:29:14;101864.44;;;23.40;61.85
69535;BME280;56754;51.568;5.048;2023-09-07T09:31:39;101871.09;;;23.43;61.95
69535;BME280;56754;51.568;5.048;2023-09-07T09:34:05;101870.72;;;23.44;61.63
69535;BME280;56754;51.568;5.048;2023-09-07T09:36:34;101872.28;;;23.45;61.92
69535;BME280;56754;51.568;5.048;2023-09-07T09:38:59;101873.09;;;23.46;62.73
69535;BME280;56754;51.568;5.048;2023-09-07T09:41:24;101864.50;;;23.47;62.63
69535;BME280;56754;51.568;5.048;2023-09-07T09:43:50;101872.34;;;23.49;63.02
69535;BME280;56754;51.568;5.048;2023-09-07T09:46:16;101859.47;;;23.49;62.98
69535;BME280;56754;51.568;5.048;2023-09-07T09:48:42;101857.53;;;23.50;62.73
69535;BME280;56754;51.568;5.048;2023-09-07T09:51:07;101860.69;;;23.52;62.67
69535;BME280;56754;51.568;5.048;2023-09-07T09:53:33;101856.00;;;23.52;62.70
69535;BME280;56754;51.568;5.048;2023-09-07T09:55:58;101855.63;;;23.54;62.77
69535;BME280;56754;51.568;5.048;2023-09-07T09:58:24;101859.13;;;23.54;62.86
69535;BME280;56754;51.568;5.048;2023-09-07T10:00:53;101853.31;;;23.56;62.70
69535;BME280;56754;51.568;5.048;2023-09-07T10:03:33;101855.69;;;23.57;62.77
69535;BME280;56754;51.568;5.048;2023-09-07T10:06:09;101847.09;;;23.59;62.76
69535;BME280;56754;51.568;5.048;2023-09-07T10:08:35;101845.94;;;23.60;63.06
69535;BME280;56754;51.568;5.048;2023-09-07T10:11:07;101842.84;;;23.61;62.90
69535;BME280;56754;51.568;5.048;2023-09-07T10:13:33;101842.06;;;23.61;63.00
69535;BME280;56754;51.568;5.048;2023-09-07T10:16:07;101843.28;;;23.64;62.97
69535;BME280;56754;51.568;5.048;2023-09-07T10:18:34;101843.28;;;23.64;63.06
69535;BME280;56754;51.568;5.048;2023-09-07T10:21:00;101837.00;;;23.63;62.89
69535;BME280;56754;51.568;5.048;2023-09-07T10:23:42;101838.97;;;23.66;62.91
69535;BME280;56754;51.568;5.048;2023-09-07T10:26:15;101838.97;;;23.66;62.86
69535;BME280;56754;51.568;5.048;2023-09-07T10:28:42;101835.09;;;23.67;62.99
69535;BME280;56754;51.568;5.048;2023-09-07T10:31:18;101841.34;;;23.68;63.08
69535;BME280;56754;51.568;5.048;2023-09-07T10:33:44;101842.13;;;23.68;62.99
69535;BME280;56754;51.568;5.048;2023-09-07T10:36:24;101836.34;;;23.70;62.78
69535;BME280;56754;51.568;5.048;2023-09-07T10:38:50;101838.22;;;23.69;62.79
69535;BME280;56754;51.568;5.048;2023-09-07T10:41:15;101831.66;;;23.70;62.98
69535;BME280;56754;51.568;5.048;2023-09-07T10:43:48;101839.47;;;23.72;62.75
69535;BME280;56754;51.568;5.048;2023-09-07T10:46:14;101832.09;;;23.72;62.91
69535;BME280;56754;51.568;5.048;2023-09-07T10:48:39;101839.09;;;23.73;62.85
69535;BME280;56754;51.568;5.048;2023-09-07T10:51:05;101835.19;;;23.74;62.77
69535;BME280;56754;51.568;5.048;2023-09-07T10:53:32;101840.66;;;23.74;62.79
69535;BME280;56754;51.568;5.048;2023-09-07T10:55:59;101834.06;;;23.75;62.80
69535;BME280;56754;51.568;5.048;2023-09-07T10:58:31;101820.41;;;23.75;62.80
69535;BME280;56754;51.568;5.048;2023-09-07T11:00:56;101824.69;;;23.76;62.89
69535;BME280;56754;51.568;5.048;2023-09-07T11:03:22;101820.41;;;23.75;62.91
69535;BME280;56754;51.568;5.048;2023-09-07T11:05:51;101826.25;;;23.77;62.76
69535;BME280;56754;51.568;5.048;2023-09-07T11:08:18;101816.13;;;23.78;62.71
69535;BME280;56754;51.568;5.048;2023-09-07T11:10:43;101821.56;;;23.78;62.74
69535;BME280;56754;51.568;5.048;2023-09-07T11:13:09;101808.75;;;23.78;62.73
69535;BME280;56754;51.568;5.048;2023-09-07T11:15:35;101813.03;;;23.79;62.69
69535;BME280;56754;51.568;5.048;2023-09-07T11:18:06;101802.88;;;23.80;62.64
69535;BME280;56754;51.568;5.048;2023-09-07T11:20:36;101813.44;;;23.81;62.79
69535;BME280;56754;51.568;5.048;2023-09-07T11:23:02;101813.44;;;23.81;62.59
69535;BME280;56754;51.568;5.048;2023-09-07T11:25:34;101813.06;;;23.83;62.65
69535;BME280;56754;51.568;5.048;2023-09-07T11:28:02;101800.19;;;23.83;62.60
69535;BME280;56754;51.568;5.048;2023-09-07T11:30:27;101811.09;;;23.83;62.66
69535;BME280;56754;51.568;5.048;2023-09-07T11:33:00;101797.44;;;23.83;62.60
69535;BME280;56754;51.568;5.048;2023-09-07T11:35:26;101802.56;;;23.85;62.54
69535;BME280;56754;51.568;5.048;2023-09-07T11:37:52;101792.41;;;23.86;62.47
69535;BME280;56754;51.568;5.048;2023-09-07T11:40:17;101799.44;;;23.87;62.60
69535;BME280;56754;51.568;5.048;2023-09-07T11:42:42;101790.09;;;23.88;62.64
69535;BME280;56754;51.568;5.048;2023-09-07T11:45:09;101795.56;;;23.88;62.64
69535;BME280;56754;51.568;5.048;2023-09-07T11:47:35;101781.50;;;23.89;62.53
69535;BME280;56754;51.568;5.048;2023-09-07T11:50:01;101783.47;;;23.89;62.22
69535;BME280;56754;51.568;5.048;2023-09-07T11:52:26;101787.75;;;23.90;62.39
69535;BME280;56754;51.568;5.048;2023-09-07T11:54:52;101785.03;;;23.90;62.36
69535;BME280;56754;51.568;5.048;2023-09-07T11:57:17;101774.53;;;23.92;62.44
69535;BME280;56754;51.568;5.048;2023-09-07T11:59:42;101769.06;;;23.92;62.18
69535;BME280;56754;51.568;5.048;2023-09-07T12:02:07;101780.75;;;23.92;62.24
69535;BME280;56754;51.568;5.048;2023-09-07T12:04:33;101779.97;;;23.92;62.23
69535;BME280;56754;51.568;5.048;2023-09-07T12:06:58;101776.06;;;23.93;62.18
69535;BME280;56754;51.568;5.048;2023-09-07T12:09:23;101780.41;;;23.94;62.26
69535;BME280;56754;51.568;5.048;2023-09-07T12:11:49;101778.06;;;23.96;62.18
69535;BME280;56754;51.568;5.048;2023-09-07T12:14:14;101774.19;;;23.97;62.10
69535;BME280;56754;51.568;5.048;2023-09-07T12:16:39;101784.72;;;23.98;62.04
69535;BME280;56754;51.568;5.048;2023-09-07T12:19:04;101771.09;;;24.02;62.13
69535;BME280;56754;51.568;5.048;2023-09-07T12:21:30;101774.63;;;24.06;61.81
69535;BME280;56754;51.568;5.048;2023-09-07T12:23:55;101766.88;;;24.12;61.81
69535;BME280;56754;51.568;5.048;2023-09-07T12:26:20;101766.91;;;24.19;61.39
69535;BME280;56754;51.568;5.048;2023-09-07T12:28:46;101775.53;;;24.24;61.25
69535;BME280;56754;51.568;5.048;2023-09-07T12:31:12;101763.09;;;24.30;61.31
69535;BME280;56754;51.568;5.048;2023-09-07T12:33:37;101759.22;;;24.35;61.00
69535;BME280;56754;51.568;5.048;2023-09-07T12:36:03;101751.03;;;24.39;60.83
69535;BME280;56754;51.568;5.048;2023-09-07T12:38:28;101759.28;;;24.42;60.75
69535;BME280;56754;51.568;5.048;2023-09-07T12:40:54;101756.56;;;24.46;60.59
69535;BME280;56754;51.568;5.048;2023-09-07T12:43:20;101754.66;;;24.50;60.65